createdAt,value
2022-08-22T00:02:47.158Z,97688.41
2022-08-22T00:03:10.556Z,97692.31
2022-08-22T14:33:28.430Z,97480.84
2022-08-22T14:35:57.214Z,97474.81
2022-08-22T14:38:29.829Z,97480.50
2022-08-22T14:41:03.341Z,97475.00
2022-08-22T14:43:29.957Z,97480.53
2022-08-22T14:46:01.944Z,97475.81
2022-08-22T14:48:43.965Z,97472.78
2022-08-22T14:51:18.352Z,97474.53
2022-08-22T14:53:52.638Z,97471.06
2022-08-22T14:56:22.287Z,97464.84
2022-08-22T14:58:56.891Z,97465.72
2022-08-22T15:01:26.414Z,97470.13
2022-08-22T15:03:56.507Z,97467.81
2022-08-22T15:06:47.774Z,97462.75
2022-08-22T15:09:35.083Z,97459.69
2022-08-22T15:12:08.040Z,97460.19
2022-08-22T15:14:37.550Z,97454.28
2022-08-22T15:17:06.543Z,97454.38
2022-08-22T15:19:34.028Z,97452.66
2022-08-22T15:22:25.818Z,97444.88
2022-08-22T15:25:01.478Z,97448.75
2022-08-22T15:27:32.742Z,97445.84
2022-08-22T15:30:01.135Z,97449.84
2022-08-22T15:32:33.183Z,97440.31
2022-08-22T15:35:07.995Z,97444.84
2022-08-22T15:37:55.163Z,97458.59
2022-08-22T15:40:30.828Z,97440.72
2022-08-22T15:43:04.285Z,97441.78
2022-08-22T15:45:33.676Z,97433.44
2022-08-22T15:48:04.399Z,97438.50
2022-08-22T15:50:36.969Z,97433.75
2022-08-22T15:53:10.503Z,97432.91
2022-08-22T15:55:38.339Z,97426.31
2022-08-22T15:58:06.838Z,97427.16
2022-08-22T16:00:43.297Z,97434.09
2022-08-22T16:03:26.701Z,97432.22
2022-08-22T16:05:55.897Z,97429.16
2022-08-22T16:08:28.548Z,97436.81
2022-08-22T16:11:04.527Z,97434.91
2022-08-22T16:13:31.057Z,97436.09
2022-08-22T16:16:02.701Z,97428.00
2022-08-22T16:18:39.207Z,97430.13
2022-08-22T16:21:23.677Z,97435.25
2022-08-22T16:23:51.862Z,97427.44
2022-08-22T16:26:22.518Z,97436.56
2022-08-22T16:28:59.727Z,97435.31
2022-08-22T16:31:29.213Z,97433.56
2022-08-22T16:33:58.058Z,97430.25
2022-08-22T16:36:39.362Z,97435.31
2022-08-22T16:39:21.431Z,97428.97
2022-08-22T16:42:08.121Z,97424.44
2022-08-22T16:44:39.215Z,97422.66
2022-08-22T16:47:11.557Z,97429.25
2022-08-22T16:49:59.083Z,97430.22
2022-08-22T16:52:27.451Z,97428.66
2022-08-22T16:54:57.726Z,97428.66
2022-08-22T16:58:05.094Z,97431.13
2022-08-22T17:00:39.300Z,97434.19
2022-08-22T17:03:24.634Z,97440.75
2022-08-22T17:05:57.245Z,97438.16
2022-08-22T17:08:42.331Z,97439.63
2022-08-22T17:11:34.803Z,97438.53
2022-08-22T17:14:04.425Z,97433.38
2022-08-22T17:16:31.042Z,97440.38
2022-08-22T17:19:16.138Z,97442.06
2022-08-22T17:22:00.090Z,97448.03
2022-08-22T17:24:37.790Z,97453.75
2022-08-22T17:27:15.400Z,97442.84
2022-08-22T17:29:42.030Z,97452.63
2022-08-22T17:32:20.697Z,97458.00
2022-08-22T17:34:56.506Z,97460.41
2022-08-22T17:37:35.964Z,97463.56
2022-08-22T17:40:05.845Z,97467.84
2022-08-22T17:42:38.300Z,97466.38
2022-08-22T17:45:25.727Z,97475.94
2022-08-22T17:48:00.776Z,97474.88
2022-08-22T17:50:32.672Z,97474.72
2022-08-22T17:53:25.093Z,97465.31
2022-08-22T17:55:59.394Z,97468.03
2022-08-22T17:58:31.886Z,97476.16
2022-08-22T18:01:17.387Z,97488.38
2022-08-22T18:03:49.337Z,97486.13
2022-08-22T18:06:15.748Z,97481.06
2022-08-22T18:09:46.699Z,97488.31
2022-08-22T18:12:20.786Z,97483.81
2022-08-22T18:14:57.174Z,97486.63
2022-08-22T18:17:40.318Z,97487.22
2022-08-22T18:20:17.293Z,97482.97
2022-08-22T18:22:50.261Z,97494.69
2022-08-22T18:25:21.537Z,97505.16
2022-08-22T18:27:56.270Z,97506.47
2022-08-22T18:30:41.829Z,97510.25
2022-08-22T18:33:18.265Z,97507.84
2022-08-22T18:35:54.511Z,97501.81
2022-08-22T18:38:31.717Z,97511.00
2022-08-22T18:41:08.751Z,97512.59
2022-08-22T18:43:39.068Z,97522.44
2022-08-22T18:46:27.840Z,97516.00
2022-08-22T18:49:14.646Z,97520.63
2022-08-22T18:51:45.780Z,97518.03
2022-08-22T18:54:12.477Z,97528.50
2022-08-22T18:57:01.423Z,97528.19
2022-08-22T18:59:37.146Z,97535.84
2022-08-22T19:02:47.107Z,97530.53
2022-08-22T19:05:31.690Z,97533.28
2022-08-22T19:08:28.260Z,97527.47
2022-08-22T19:11:49.699Z,97531.78
2022-08-22T19:14:27.396Z,97532.72
2022-08-22T19:17:25.984Z,97537.63
2022-08-22T19:20:30.202Z,97534.09
2022-08-22T19:23:34.267Z,97541.00
2022-08-22T19:26:28.730Z,97544.34
2022-08-22T19:29:01.712Z,97544.38
2022-08-22T19:31:43.694Z,97550.19
2022-08-22T19:34:25.193Z,97548.91
2022-08-22T19:37:32.457Z,97557.16
2022-08-22T19:40:05.112Z,97555.16
2022-08-22T19:42:37.567Z,97562.50
2022-08-22T19:45:17.685Z,97566.28
2022-08-22T19:47:57.386Z,97568.72
2022-08-22T19:50:30.863Z,97575.13
2022-08-22T19:53:10.188Z,97569.31
2022-08-22T19:55:39.538Z,97571.91
2022-08-22T19:58:08.474Z,97568.81
2022-08-22T20:00:56.702Z,97573.13
2022-08-22T20:03:41.690Z,97562.56
2022-08-22T20:06:43.555Z,97571.41
2022-08-22T20:09:13.447Z,97572.31
2022-08-22T20:12:15.778Z,97576.28
2022-08-22T20:14:46.220Z,97576.88
2022-08-22T20:17:34.462Z,97572.59
2022-08-22T20:20:18.212Z,97580.22
2022-08-22T20:23:24.685Z,97580.38
2022-08-22T20:25:53.068Z,97579.66
2022-08-22T20:28:31.484Z,97585.31
2022-08-22T20:31:00.725Z,97585.53
2022-08-22T20:33:35.500Z,97582.59
2022-08-22T20:36:06.106Z,97597.72
2022-08-22T20:38:41.412Z,97584.56
2022-08-22T20:41:38.649Z,97584.56
2022-08-22T20:44:13.041Z,97595.16
2022-08-22T20:46:53.635Z,97591.91
2022-08-22T20:49:26.612Z,97583.47
2022-08-22T20:51:57.749Z,97585.47
2022-08-22T20:54:30.454Z,97584.81
2022-08-22T20:57:10.096Z,97587.22
2022-08-22T20:59:42.510Z,97585.38
2022-08-22T21:02:15.028Z,97591.56
2022-08-22T21:04:58.430Z,97597.63
2022-08-22T21:07:29.893Z,97592.06
2022-08-22T21:10:35.485Z,97592.38
2022-08-22T21:13:10.565Z,97598.56
2022-08-22T21:15:42.746Z,97597.91
2022-08-22T21:18:13.126Z,97600.00
2022-08-22T21:20:40.381Z,97606.38
2022-08-22T21:23:14.295Z,97601.78
2022-08-22T21:25:59.190Z,97600.78
2022-08-22T21:28:37.163Z,97609.25
2022-08-22T21:31:11.517Z,97605.19
2022-08-22T21:33:48.011Z,97611.69
2022-08-22T21:36:18.875Z,97608.59
2022-08-22T21:38:59.525Z,97609.06
2022-08-22T21:41:40.645Z,97610.25
2022-08-22T21:44:27.573Z,97610.16
2022-08-22T21:46:55.675Z,97610.59
2022-08-22T21:49:31.159Z,97608.28
2022-08-22T21:51:57.773Z,97600.50
2022-08-22T21:54:30.516Z,97611.56
2022-08-22T21:57:02.550Z,97609.28
2022-08-22T21:59:51.576Z,97601.94
2022-08-22T22:02:39.766Z,97609.28
2022-08-22T22:05:17.667Z,97609.59
2022-08-22T22:07:46.354Z,97616.09
2022-08-22T22:10:16.952Z,97616.53
2022-08-22T22:12:45.232Z,97620.53
2022-08-22T22:15:18.151Z,97616.38
2022-08-22T22:17:44.769Z,97621.63
2022-08-22T22:20:12.647Z,97619.75
2022-08-22T22:22:45.886Z,97625.34
2022-08-22T22:25:40.381Z,97627.75
2022-08-22T22:28:14.264Z,97634.88
2022-08-22T22:30:43.559Z,97631.03
2022-08-22T22:33:11.032Z,97629.91
2022-08-22T22:35:40.401Z,97637.47
2022-08-22T22:38:07.731Z,97633.72
2022-08-22T22:40:35.233Z,97633.19
2022-08-22T22:43:06.110Z,97638.00
2022-08-22T22:45:32.775Z,97639.69
2022-08-22T22:47:59.559Z,97641.00
2022-08-22T22:50:26.374Z,97641.09
2022-08-22T22:52:54.100Z,97644.81
2022-08-22T22:55:24.225Z,97643.78
2022-08-22T22:57:59.118Z,97637.28
2022-08-22T23:00:30.755Z,97639.03
2022-08-22T23:03:01.186Z,97636.84
2022-08-22T23:05:31.896Z,97636.28
2022-08-22T23:07:59.158Z,97646.88
2022-08-22T23:10:32.332Z,97647.06
2022-08-22T23:12:59.321Z,97651.44
2022-08-22T23:15:26.936Z,97650.75
2022-08-22T23:17:55.508Z,97654.75
2022-08-22T23:20:22.640Z,97646.22
2022-08-22T23:22:51.327Z,97652.56
2022-08-22T23:25:18.175Z,97654.06
2022-08-22T23:27:44.974Z,97652.72
2022-08-22T23:30:18.707Z,97654.41
2022-08-22T23:32:49.697Z,97651.34
2022-08-22T23:35:16.301Z,97652.97
2022-08-22T23:37:42.909Z,97660.16
2022-08-22T23:40:12.339Z,97659.88
2022-08-22T23:42:41.206Z,97661.41
2022-08-22T23:45:08.030Z,97661.41
2022-08-22T23:47:34.709Z,97665.00
2022-08-22T23:50:05.978Z,97668.66
2022-08-22T23:52:33.253Z,97663.34
2022-08-22T23:55:04.272Z,97662.72
2022-08-22T23:57:30.843Z,97669.81
2022-08-22T23:59:58.486Z,97664.00
